KCWV

Claxton-Evans County Airport

Claxton, Georgia, USA
METAR KCWV 162355Z AUTO 23003KT 7SM OVC029 13/09 A3010 RMK AO2 T01260085 10159 20126
Observed Flight Rules
Dec-16 @ 23:55 UTC (28 minutes ago) Marginal Visual Flight Rules
Wind Visibility Clouds
230° at 3 knots 7 miles
  • Overcast at 2,900' AGL
Temperatures Readings
Current 13°C / 55°F
Dewpoint 9°C / 48°F
Humidity 77%
Altimeter 30.1" Hg
Pressure 1019 hPa
Elevation 33
METAR KCWV 162355Z AUTO 23003KT 7SM OVC029 13/09 A3010 RMK AO2 T01260085 10159 20126
Observed Flight Rules
Dec-16 @ 23:55 UTC
(28 minutes ago)
MVFR
Wind Visibility
230° at 3 knots 7 miles
Clouds
  • Overcast at 2,900' AGL
Temperature Dewpoint
13°C / 55°F 9°C / 48°F
Humidity Altimeter Pressure
77% 30.1" Hg 1019 hPa